Time;durP1;ratioP1;P1;durP2;ratioP2;P2;SDS_P1;SDS_P2;PMS_P1;PMS_P2;Temp;Humidity;BMP_temperature;BMP_pressure;BME280_temperature;BME280_humidity;BME280_pressure;Samples;Min_cycle;Max_cycle;Signal;HPM_P1;HPM_P2
2021/07/24 02:47:50;;;;;;;;;;;18.10;84.90;;;;;;4778869;30;20213;-78
2021/07/24 02:50:18;;;;;;;;;;;18.20;85.10;;;;;;4785996;30;19957;-77
2021/07/24 02:52:44;;;;;;;;;;;18.10;85.10;;;;;;4797103;30;19917;-76
2021/07/24 02:55:10;;;;;;;;;;;18.10;85.20;;;;;;4796462;29;19951;-77
2021/07/24 02:57:36;;;;;;;;;;;18.10;85.50;;;;;;4776660;30;19910;-77
2021/07/24 03:00:03;;;;;;;;;;;18.00;85.70;;;;;;4784804;30;19972;-77
2021/07/24 03:02:28;;;;;;;;;;;18.00;85.80;;;;;;4796805;30;19951;-77
2021/07/24 03:04:54;;;;;;;;;;;18.00;85.90;;;;;;4757988;30;20143;-77
2021/07/24 03:07:20;;;;;;;;;;;18.00;85.80;;;;;;4769585;30;19922;-77
2021/07/24 03:09:45;;;;;;;;;;;18.00;86.00;;;;;;4796629;30;19910;-77
2021/07/24 03:12:11;;;;;;;;;;;17.90;86.10;;;;;;4782779;30;19967;-77
2021/07/24 03:14:37;;;;;;;;;;;17.90;86.30;;;;;;4761014;30;19933;-77
2021/07/24 03:17:02;;;;;;;;;;;17.90;86.30;;;;;;4792585;29;19909;-77
2021/07/24 03:19:28;;;;;;;;;;;17.90;86.40;;;;;;4766056;30;19916;-77
2021/07/24 03:21:54;;;;;;;;;;;17.90;86.40;;;;;;4795383;30;19970;-77
2021/07/24 03:24:19;;;;;;;;;;;17.90;86.30;;;;;;4775849;30;19916;-77
2021/07/24 03:26:45;;;;;;;;;;;17.90;86.40;;;;;;4796733;30;19945;-76
2021/07/24 03:29:10;;;;;;;;;;;17.90;86.40;;;;;;4795230;30;19954;-76
2021/07/24 03:31:36;;;;;;;;;;;17.90;86.40;;;;;;4764428;30;19910;-76
2021/07/24 03:34:02;;;;;;;;;;;17.80;86.50;;;;;;4787911;30;19935;-78
2021/07/24 03:36:27;;;;;;;;;;;17.80;86.60;;;;;;4788422;30;19990;-78
2021/07/24 03:38:53;;;;;;;;;;;17.80;86.50;;;;;;4787999;30;19917;-78
2021/07/24 03:41:18;;;;;;;;;;;17.80;86.40;;;;;;4780309;30;19931;-77
2021/07/24 03:43:44;;;;;;;;;;;17.90;86.00;;;;;;4781050;30;20112;-78
2021/07/24 03:46:17;;;;;;;;;;;17.90;86.20;;;;;;4761273;30;20003;-78
2021/07/24 03:48:43;;;;;;;;;;;17.90;86.20;;;;;;4783618;30;20158;-78
2021/07/24 03:51:10;;;;;;;;;;;17.90;86.60;;;;;;4787599;30;19910;-79
2021/07/24 03:53:37;;;;;;;;;;;17.90;86.40;;;;;;4794200;30;19956;-78
2021/07/24 03:56:02;;;;;;;;;;;17.90;86.00;;;;;;4788426;30;19913;-78
2021/07/24 03:58:28;;;;;;;;;;;18.00;86.10;;;;;;4786149;30;19910;-78
2021/07/24 04:00:53;;;;;;;;;;;18.10;86.10;;;;;;4799893;29;19910;-78
2021/07/24 04:03:24;;;;;;;;;;;18.10;86.10;;;;;;4793976;29;19910;-78
2021/07/24 04:05:51;;;;;;;;;;;18.20;85.90;;;;;;4800081;29;19909;-78
2021/07/24 04:08:17;;;;;;;;;;;18.20;85.10;;;;;;4786058;30;20123;-78
2021/07/24 04:10:43;;;;;;;;;;;18.30;84.40;;;;;;4789306;30;19910;-78
2021/07/24 04:13:08;;;;;;;;;;;18.40;84.20;;;;;;4792952;30;19909;-78
2021/07/24 04:15:36;;;;;;;;;;;18.50;83.60;;;;;;4770095;30;19984;-78
2021/07/24 04:18:02;;;;;;;;;;;18.60;82.60;;;;;;4773565;30;19910;-78
2021/07/24 04:20:28;;;;;;;;;;;18.60;82.90;;;;;;4782134;30;19944;-78
2021/07/24 04:22:54;;;;;;;;;;;18.80;82.90;;;;;;4788049;30;19910;-78
2021/07/24 04:25:19;;;;;;;;;;;18.90;81.40;;;;;;4782028;30;19910;-78
2021/07/24 04:27:46;;;;;;;;;;;19.00;81.10;;;;;;4796871;30;19981;-78
2021/07/24 04:30:12;;;;;;;;;;;19.10;80.60;;;;;;4791454;30;19910;-78
2021/07/24 04:32:38;;;;;;;;;;;19.20;80.70;;;;;;4791078;30;19916;-78
2021/07/24 04:35:04;;;;;;;;;;;19.30;80.70;;;;;;4797839;29;19945;-78
2021/07/24 04:37:30;;;;;;;;;;;19.50;80.20;;;;;;4793865;30;19909;-78
2021/07/24 04:39:55;;;;;;;;;;;19.60;78.50;;;;;;4794904;30;19905;-78
2021/07/24 04:42:21;;;;;;;;;;;19.60;78.50;;;;;;4798868;29;19937;-78
2021/07/24 04:44:47;;;;;;;;;;;19.70;77.90;;;;;;4798791;29;19917;-78
2021/07/24 04:47:13;;;;;;;;;;;19.70;77.70;;;;;;4791384;29;20098;-78
2021/07/24 04:49:48;;;;;;;;;;;19.70;79.00;;;;;;4771531;30;19916;-78
2021/07/24 04:52:14;;;;;;;;;;;19.80;78.40;;;;;;4791321;29;19909;-77
2021/07/24 04:54:41;;;;;;;;;;;19.80;77.40;;;;;;4765959;30;19910;-78
2021/07/24 04:57:07;;;;;;;;;;;19.90;76.30;;;;;;4756372;30;19910;-78
2021/07/24 04:59:34;;;;;;;;;;;19.90;76.30;;;;;;4797044;29;19947;-78
2021/07/24 05:02:00;;;;;;;;;;;20.00;76.80;;;;;;4785593;30;19937;-78
2021/07/24 05:04:26;;;;;;;;;;;20.10;76.20;;;;;;4785274;30;19917;-78
2021/07/24 05:06:52;;;;;;;;;;;20.20;76.20;;;;;;4779394;30;19910;-78
2021/07/24 05:09:17;;;;;;;;;;;20.30;77.10;;;;;;4770939;30;19930;-77
2021/07/24 05:11:43;;;;;;;;;;;20.40;77.00;;;;;;4786047;29;19942;-78
2021/07/24 05:14:08;;;;;;;;;;;20.40;74.60;;;;;;4749568;30;19917;-77
2021/07/24 05:16:34;;;;;;;;;;;20.30;73.60;;;;;;4795295;30;19985;-78
2021/07/24 05:19:00;;;;;;;;;;;20.20;73.70;;;;;;4786384;29;20201;-77
2021/07/24 05:21:26;;;;;;;;;;;20.20;74.60;;;;;;4764174;30;19910;-78
2021/07/24 05:23:52;;;;;;;;;;;20.20;74.70;;;;;;4787614;30;20086;-78
2021/07/24 05:26:17;;;;;;;;;;;20.40;74.20;;;;;;4767786;30;20138;-78
2021/07/24 05:28:43;;;;;;;;;;;20.60;75.10;;;;;;4773018;30;19936;-78
2021/07/24 05:31:16;;;;;;;;;;;20.80;72.80;;;;;;4774327;30;19905;-78
2021/07/24 05:33:41;;;;;;;;;;;20.80;72.00;;;;;;4790651;30;20193;-77
2021/07/24 05:36:07;;;;;;;;;;;20.90;72.30;;;;;;4781004;30;19910;-78
2021/07/24 05:38:33;;;;;;;;;;;21.00;72.20;;;;;;4784164;29;20268;-78
2021/07/24 05:41:00;;;;;;;;;;;21.00;71.10;;;;;;4783630;30;19910;-78
2021/07/24 05:43:25;;;;;;;;;;;21.00;72.00;;;;;;4753999;30;19910;-78
2021/07/24 05:45:51;;;;;;;;;;;21.30;71.50;;;;;;4785851;30;19914;-78
2021/07/24 05:48:17;;;;;;;;;;;21.80;69.70;;;;;;4778975;29;19930;-78
2021/07/24 05:50:43;;;;;;;;;;;22.10;68.80;;;;;;4763945;30;20140;-78
2021/07/24 05:53:08;;;;;;;;;;;22.40;67.90;;;;;;4754716;30;19916;-78
2021/07/24 05:55:34;;;;;;;;;;;22.50;67.90;;;;;;4782543;30;19910;-78
2021/07/24 05:57:59;;;;;;;;;;;22.60;67.60;;;;;;4763102;30;19925;-78
2021/07/24 06:00:25;;;;;;;;;;;22.80;67.40;;;;;;4778411;30;19917;-78
2021/07/24 06:02:51;;;;;;;;;;;23.20;67.50;;;;;;4774435;30;20291;-78
2021/07/24 06:05:17;;;;;;;;;;;23.70;65.00;;;;;;4768546;30;19984;-78
2021/07/24 06:07:42;;;;;;;;;;;23.80;64.50;;;;;;4790706;30;19913;-78
2021/07/24 06:10:08;;;;;;;;;;;24.20;64.40;;;;;;4764695;30;19910;-78
2021/07/24 06:12:34;;;;;;;;;;;24.40;63.60;;;;;;4770980;30;19977;-78
2021/07/24 06:15:00;;;;;;;;;;;24.70;63.80;;;;;;4770846;30;19918;-79
2021/07/24 06:17:25;;;;;;;;;;;24.90;62.20;;;;;;4782349;30;19973;-80
2021/07/24 06:19:51;;;;;;;;;;;25.20;62.80;;;;;;4782906;29;19933;-79
2021/07/24 06:22:17;;;;;;;;;;;25.40;62.20;;;;;;4777401;30;19910;-80
2021/07/24 06:24:43;;;;;;;;;;;25.60;62.10;;;;;;4778059;30;19910;-80
2021/07/24 06:27:08;;;;;;;;;;;25.80;60.50;;;;;;4763677;30;19914;-80
2021/07/24 06:29:34;;;;;;;;;;;26.00;59.50;;;;;;4759930;30;19937;-80
2021/07/24 06:31:59;;;;;;;;;;;26.00;59.80;;;;;;4789925;30;19906;-81
2021/07/24 06:34:25;;;;;;;;;;;25.90;59.20;;;;;;4796139;29;19977;-80
2021/07/24 06:36:51;;;;;;;;;;;25.60;59.20;;;;;;4790426;29;19905;-80
2021/07/24 06:39:17;;;;;;;;;;;25.40;60.70;;;;;;4784048;29;19918;-80
2021/07/24 06:41:43;;;;;;;;;;;25.20;60.30;;;;;;4765312;30;19916;-80
2021/07/24 06:44:08;;;;;;;;;;;25.00;61.20;;;;;;4765533;30;19970;-80
2021/07/24 06:46:34;;;;;;;;;;;24.80;61.30;;;;;;4779033;29;19922;-80
2021/07/24 06:49:00;;;;;;;;;;;24.70;62.70;;;;;;4771137;30;19921;-80
2021/07/24 06:51:26;;;;;;;;;;;24.50;62.60;;;;;;4764812;30;20202;-80
2021/07/24 06:53:51;;;;;;;;;;;24.50;64.00;;;;;;4778011;30;19906;-80
2021/07/24 06:56:17;;;;;;;;;;;24.70;64.00;;;;;;4763374;30;20201;-80
2021/07/24 06:58:43;;;;;;;;;;;24.90;63.20;;;;;;4795355;29;19910;-80
2021/07/24 07:01:08;;;;;;;;;;;25.00;64.20;;;;;;4782404;30;19910;-81
2021/07/24 07:03:34;;;;;;;;;;;25.30;64.40;;;;;;4796097;29;19910;-81
2021/07/24 07:06:03;;;;;;;;;;;25.50;63.30;;;;;;4787210;29;19907;-81
2021/07/24 07:08:28;;;;;;;;;;;25.70;62.10;;;;;;4790185;30;19921;-81
2021/07/24 07:10:59;;;;;;;;;;;25.80;62.30;;;;;;4787167;30;19922;-81
2021/07/24 07:13:25;;;;;;;;;;;25.90;60.90;;;;;;4762174;30;19910;-81
2021/07/24 07:15:51;;;;;;;;;;;25.90;60.60;;;;;;4785005;30;19951;-80
2021/07/24 07:20:47;;;;;;;20.25;10.50;;;25.80;61.50;;;;;;5123739;27;20327;-78
2021/07/24 07:23:13;;;;;;;22.65;11.00;;;25.90;62.00;;;;;;5106736;28;20054;-79
2021/07/24 07:25:39;;;;;;;22.95;10.68;;;25.90;62.00;;;;;;5094438;28;20024;-84
2021/07/24 07:28:05;;;;;;;15.20;9.97;;;26.00;60.90;;;;;;5106890;28;20095;-84
2021/07/24 07:30:31;;;;;;;22.20;10.13;;;26.10;62.10;;;;;;5086041;28;20032;-84
2021/07/24 07:32:57;;;;;;;14.77;10.35;;;26.20;61.00;;;;;;5096275;28;20027;-83
2021/07/24 07:35:22;;;;;;;18.08;9.20;;;26.30;61.20;;;;;;5101398;28;20023;-83
2021/07/24 07:37:50;;;;;;;19.83;10.23;;;26.40;60.10;;;;;;5081098;28;20037;-83
2021/07/24 07:40:17;;;;;;;16.95;9.60;;;26.60;59.00;;;;;;5097568;28;20044;-83
2021/07/24 07:42:43;;;;;;;;;;;26.60;59.40;;;;;;5115661;28;20025;-83
2021/07/24 07:45:10;;;;;;;17.43;10.53;;;26.70;58.90;;;;;;5094542;28;20126;-83
2021/07/24 07:47:37;;;;;;;16.40;9.35;;;26.80;58.20;;;;;;5087090;28;20032;-83
2021/07/24 07:50:07;;;;;;;18.15;8.75;;;26.90;58.20;;;;;;5080975;28;20029;-83
2021/07/24 07:52:33;;;;;;;28.40;11.80;;;27.10;58.20;;;;;;5080990;28;20068;-82
2021/07/24 07:54:59;;;;;;;21.08;12.25;;;27.20;57.30;;;;;;5087685;28;20321;-82
2021/07/24 07:57:25;;;;;;;23.42;10.85;;;27.30;56.90;;;;;;5088942;28;20025;-83
2021/07/24 07:59:52;;;;;;;14.52;10.55;;;27.30;55.90;;;;;;5082598;28;20024;-81
2021/07/24 08:02:17;;;;;;;18.42;10.57;;;27.20;55.90;;;;;;5077883;28;20021;-81
2021/07/24 08:04:43;;;;;;;13.18;9.60;;;27.20;55.80;;;;;;5070572;28;20036;-83
2021/07/24 08:07:09;;;;;;;15.98;9.60;;;27.30;56.90;;;;;;5104990;28;20040;-83
2021/07/24 08:09:36;;;;;;;19.77;10.40;;;27.40;54.70;;;;;;5085231;28;20160;-84
2021/07/24 08:12:03;;;;;;;15.82;9.98;;;27.50;54.50;;;;;;5080643;28;20051;-84
2021/07/24 08:14:28;;;;;;;16.50;9.68;;;27.60;54.60;;;;;;5077870;28;20100;-84
2021/07/24 08:16:54;;;;;;;20.10;9.00;;;27.60;56.50;;;;;;5084473;28;20047;-84
2021/07/24 08:19:20;;;;;;;12.33;8.27;;;27.70;54.70;;;;;;5079861;28;20086;-83
2021/07/24 08:21:45;;;;;;;8.65;7.13;;;27.90;54.40;;;;;;5098405;28;20021;-83
2021/07/24 08:24:11;;;;;;;17.85;9.40;;;28.10;53.80;;;;;;5084013;28;20027;-83
2021/07/24 08:26:37;;;;;;;11.68;7.47;;;28.10;53.70;;;;;;5099237;28;20063;-83
2021/07/24 08:29:03;;;;;;;13.60;7.82;;;28.20;54.20;;;;;;5064511;28;20017;-84
2021/07/24 08:31:28;;;;;;;15.20;8.77;;;28.30;53.00;;;;;;5057974;28;20024;-80
2021/07/24 08:33:54;;;;;;;13.35;8.80;;;28.50;53.10;;;;;;5079357;28;20032;-80
2021/07/24 08:36:20;;;;;;;17.38;8.10;;;28.60;54.60;;;;;;5088073;28;20047;-81
2021/07/24 08:38:46;;;;;;;15.37;7.30;;;28.80;53.30;;;;;;5073745;28;20036;-81
2021/07/24 08:41:16;;;;;;;12.63;7.45;;;29.00;52.40;;;;;;5058209;28;20088;-81
2021/07/24 08:43:44;;;;;;;9.90;6.97;;;29.00;51.30;;;;;;5083395;28;20008;-80
2021/07/24 08:46:12;;;;;;;19.20;7.22;;;29.10;51.30;;;;;;5074249;28;20017;-81
2021/07/24 08:48:38;;;;;;;17.25;6.75;;;29.20;52.20;;;;;;5050861;28;20216;-81
2021/07/24 08:51:05;;;;;;;16.25;6.63;;;29.30;51.00;;;;;;5069729;28;20040;-80
2021/07/24 08:53:35;;;;;;;15.05;6.95;;;29.40;49.80;;;;;;5067619;28;20532;-80
2021/07/24 08:56:05;;;;;;;10.25;6.88;;;29.50;50.90;;;;;;5065934;28;20025;-80
2021/07/24 08:58:34;;;;;;;8.80;7.03;;;29.60;51.00;;;;;;5066799;28;20100;-80
2021/07/24 09:01:00;;;;;;;12.35;7.25;;;29.60;51.30;;;;;;5055937;28;20031;-80
2021/07/24 09:03:32;;;;;;;10.43;7.77;;;29.60;50.10;;;;;;5050030;28;20048;-83
2021/07/24 09:05:57;;;;;;;15.32;7.60;;;29.70;50.80;;;;;;5057171;28;20050;-83
2021/07/24 09:08:25;;;;;;;11.73;7.00;;;29.80;50.50;;;;;;5068832;28;20024;-82
2021/07/24 09:10:53;;;;;;;12.95;6.22;;;29.90;51.60;;;;;;5073593;28;20031;-83
2021/07/24 09:13:19;;;;;;;12.00;6.97;;;30.00;51.50;;;;;;5070633;28;20021;-84
2021/07/24 09:15:45;;;;;;;16.70;7.27;;;30.10;48.60;;;;;;5065360;28;20025;-83
2021/07/24 09:18:11;;;;;;;15.53;7.93;;;30.00;49.90;;;;;;5075598;28;20017;-84
2021/07/24 09:20:37;;;;;;;15.67;7.00;;;29.90;50.40;;;;;;5056593;28;20044;-84
2021/07/24 09:23:33;;;;;;;12.73;6.87;;;30.00;48.60;;;;;;5070686;28;20049;-83
2021/07/24 09:26:00;;;;;;;12.00;6.80;;;30.10;51.10;;;;;;5073364;28;20032;-82
2021/07/24 09:28:26;;;;;;;;;;;30.20;50.70;;;;;;5082108;28;20032;-83
2021/07/24 09:30:52;;;;;;;10.15;6.88;;;30.10;50.50;;;;;;5050694;28;20099;-82
2021/07/24 09:33:20;;;;;;;11.50;7.07;;;30.10;51.30;;;;;;5063500;28;20028;-82
2021/07/24 09:35:53;;;;;;;11.35;7.07;;;30.30;52.60;;;;;;5068123;28;20299;-81
2021/07/24 09:38:29;;;;;;;9.55;6.80;;;30.30;49.80;;;;;;5076182;28;20315;-83
2021/07/24 09:40:57;;;;;;;12.00;7.13;;;30.40;51.20;;;;;;5066787;28;20304;-83
2021/07/24 09:43:36;;;;;;;12.70;6.57;;;30.40;51.30;;;;;;5049722;28;20091;-84
2021/07/24 09:46:16;;;;;;;9.25;6.47;;;30.50;51.40;;;;;;5074250;28;20040;-84
2021/07/24 09:48:52;;;;;;;8.13;6.80;;;30.60;51.70;;;;;;5077342;28;20046;-83
2021/07/24 09:51:37;;;;;;;15.48;6.40;;;30.70;50.60;;;;;;5055001;28;20107;-83
2021/07/24 09:54:04;;;;;;;12.47;7.30;;;30.70;50.50;;;;;;5087105;28;20037;-83
2021/07/24 09:56:43;;;;;;;;;;;30.80;50.60;;;;;;5078109;28;20025;-81
2021/07/24 09:59:18;;;;;;;9.50;6.43;;;30.80;49.60;;;;;;5073122;28;19995;-82
2021/07/24 10:01:51;;;;;;;10.52;6.95;;;30.80;50.00;;;;;;5061919;28;20035;-82
2021/07/24 10:04:25;;;;;;;11.65;7.32;;;31.00;49.30;;;;;;5067658;28;20076;-82
2021/07/24 10:06:55;;;;;;;13.68;6.40;;;31.00;48.40;;;;;;5062763;28;20259;-82
2021/07/24 10:09:26;;;;;;;7.57;6.05;;;30.90;49.60;;;;;;5073462;28;20029;-83
2021/07/24 10:11:56;;;;;;;11.43;6.50;;;30.90;49.30;;;;;;5067191;28;20021;-83
2021/07/24 10:14:22;;;;;;;9.68;6.72;;;30.90;49.70;;;;;;5079066;28;20033;-83
2021/07/24 10:16:51;;;;;;;16.33;6.28;;;31.00;49.70;;;;;;5072436;28;20028;-83
2021/07/24 10:19:18;;;;;;;8.30;6.25;;;31.00;49.40;;;;;;5065822;28;20277;-82
2021/07/24 10:21:44;;;;;;;10.90;7.07;;;31.20;48.60;;;;;;5050090;28;20025;-82
2021/07/24 10:24:11;;;;;;;14.30;6.37;;;31.20;49.50;;;;;;5062178;28;20067;-82
2021/07/24 10:26:39;;;;;;;8.85;6.55;;;31.20;49.40;;;;;;5074966;28;20343;-83
2021/07/24 10:29:17;;;;;;;9.93;6.82;;;31.10;49.10;;;;;;5064710;28;20043;-83
2021/07/24 10:32:00;;;;;;;12.40;7.32;;;31.00;50.10;;;;;;5078433;28;20028;-83
2021/07/24 10:34:29;;;;;;;13.63;7.63;;;31.00;50.90;;;;;;5066275;28;20028;-83
2021/07/24 10:36:55;;;;;;;9.40;7.00;;;31.10;50.80;;;;;;5052981;28;20037;-83
2021/07/24 10:39:22;;;;;;;8.63;6.63;;;31.20;49.30;;;;;;5051284;28;20024;-84
2021/07/24 10:41:51;;;;;;;7.75;6.82;;;31.20;50.60;;;;;;5076493;28;20104;-84
2021/07/24 10:44:36;;;;;;;13.07;7.32;;;31.00;49.00;;;;;;5056462;28;20135;-84
2021/07/24 10:47:02;;;;;;;10.50;6.53;;;30.70;50.10;;;;;;5069825;28;20020;-82
2021/07/24 10:49:34;;;;;;;14.30;7.30;;;30.70;50.80;;;;;;5061280;28;20350;-84
2021/07/24 10:52:00;;;;;;;10.00;7.32;;;31.20;51.30;;;;;;5063688;28;20025;-84
2021/07/24 10:54:27;;;;;;;10.50;7.22;;;31.40;49.80;;;;;;5072959;28;20025;-84
2021/07/24 10:56:53;;;;;;;9.57;7.00;;;31.60;50.20;;;;;;5059993;28;20230;-83
2021/07/24 10:59:29;;;;;;;11.98;7.05;;;31.60;49.50;;;;;;5065462;28;20263;-83
2021/07/24 11:01:59;;;;;;;8.20;7.00;;;31.60;49.60;;;;;;5082466;28;20115;-83
2021/07/24 11:04:35;;;;;;;9.30;6.97;;;31.60;49.20;;;;;;5052703;28;20152;-83
2021/07/24 11:07:20;;;;;;;12.50;7.18;;;31.60;52.30;;;;;;5082760;28;20059;-83
2021/07/24 11:10:03;;;;;;;12.45;7.40;;;31.70;49.50;;;;;;5081831;28;20029;-83
2021/07/24 11:12:39;;;;;;;13.57;7.18;;;31.70;50.50;;;;;;5056496;28;20331;-83
2021/07/24 11:15:10;;;;;;;12.35;7.15;;;31.60;51.10;;;;;;5053731;28;20091;-84
2021/07/24 11:17:37;;;;;;;10.07;6.97;;;31.40;50.90;;;;;;5056622;28;20075;-83
2021/07/24 11:20:08;;;;;;;;;;;31.50;50.30;;;;;;5070622;28;20048;-83
2021/07/24 11:22:37;;;;;;;11.43;7.20;;;31.70;52.10;;;;;;5055598;28;19904;-83
2021/07/24 11:25:03;;;;;;;10.23;6.85;;;31.90;50.00;;;;;;5065959;28;20052;-81
2021/07/24 11:27:30;;;;;;;16.93;6.93;;;31.90;50.30;;;;;;5058625;28;20013;-84
2021/07/24 11:30:02;;;;;;;12.40;7.07;;;32.00;50.30;;;;;;5065516;28;20033;-83
2021/07/24 11:32:29;;;;;;;8.70;6.85;;;32.10;47.70;;;;;;5071735;28;20036;-82
2021/07/24 11:35:00;;;;;;;9.75;7.53;;;32.10;49.50;;;;;;5078622;28;20056;-81
2021/07/24 11:37:41;;;;;;;8.70;6.35;;;32.20;48.50;;;;;;5051552;28;20100;-84
2021/07/24 11:40:12;;;;;;;14.65;6.97;;;32.20;49.40;;;;;;5069148;28;20049;-83
2021/07/24 11:42:38;;;;;;;16.85;7.82;;;32.20;48.70;;;;;;5081761;28;20023;-83
2021/07/24 11:45:04;;;;;;;8.88;7.28;;;32.20;49.70;;;;;;5074311;28;20024;-84
2021/07/24 11:47:30;;;;;;;;;;;32.20;48.50;;;;;;5061691;28;20071;-84
2021/07/24 11:50:16;;;;;;;14.50;7.93;;;32.30;49.60;;;;;;5085973;28;19904;-83
2021/07/24 11:52:42;;;;;;;10.55;7.75;;;32.40;48.60;;;;;;5080051;28;20029;-83
2021/07/24 11:55:09;;;;;;;9.03;6.77;;;32.40;47.90;;;;;;5100616;28;20069;-83
2021/07/24 11:57:35;;;;;;;8.82;6.82;;;32.60;49.40;;;;;;5071706;28;20032;-85
2021/07/24 12:00:02;;;;;;;10.27;7.18;;;32.70;47.70;;;;;;5057381;28;20028;-84
2021/07/24 12:02:30;;;;;;;10.55;6.82;;;32.80;48.40;;;;;;5081733;28;20062;-84
2021/07/24 12:04:56;;;;;;;17.60;7.33;;;32.70;47.90;;;;;;5075872;28;20016;-83
2021/07/24 12:07:23;;;;;;;8.27;6.93;;;32.80;47.40;;;;;;5051323;28;20029;-83
2021/07/24 12:09:52;;;;;;;9.48;7.22;;;32.70;48.60;;;;;;5083668;28;20075;-83
2021/07/24 12:12:23;;;;;;;16.00;7.32;;;32.70;48.10;;;;;;5074542;28;20511;-82
2021/07/24 12:14:55;;;;;;;13.45;7.53;;;32.60;47.00;;;;;;5056733;28;20095;-78
2021/07/24 12:17:27;;;;;;;12.63;7.65;;;32.70;48.70;;;;;;5067636;28;20032;-78
2021/07/24 12:19:53;;;;;;;12.43;7.85;;;32.90;47.50;;;;;;5083927;28;20051;-79
2021/07/24 12:22:18;;;;;;;12.50;7.80;;;33.00;47.60;;;;;;5076218;28;20047;-79
2021/07/24 12:24:47;;;;;;;11.37;6.73;;;33.00;46.30;;;;;;5079913;28;20044;-80
2021/07/24 12:27:15;;;;;;;13.32;7.70;;;32.90;49.00;;;;;;5065799;28;20297;-80
2021/07/24 12:29:51;;;;;;;9.38;7.38;;;32.90;47.90;;;;;;5067288;28;20056;-81
2021/07/24 12:32:18;;;;;;;17.25;6.95;;;32.90;47.00;;;;;;5056429;28;20036;-80
2021/07/24 12:34:46;;;;;;;13.77;7.60;;;33.20;47.90;;;;;;5069603;28;20072;-80
2021/07/24 12:37:27;;;;;;;13.25;7.45;;;33.30;46.00;;;;;;5065918;28;20312;-80
2021/07/24 12:39:53;;;;;;;10.63;7.82;;;33.30;45.90;;;;;;5084119;28;20117;-80
2021/07/24 12:42:30;;;;;;;13.20;7.63;;;33.30;48.10;;;;;;5072335;28;20042;-80
2021/07/24 12:44:58;;;;;;;9.23;7.00;;;33.30;45.80;;;;;;5074063;28;20037;-80
2021/07/24 12:47:24;;;;;;;15.55;8.20;;;33.40;45.40;;;;;;5057859;28;20058;-80
2021/07/24 12:49:52;;;;;;;14.20;7.38;;;33.30;46.30;;;;;;5060699;28;20071;-80
2021/07/24 12:52:24;;;;;;;12.90;7.75;;;33.30;45.70;;;;;;5057679;28;20036;-80
2021/07/24 12:55:18;;;;;;;16.05;7.07;;;33.30;47.40;;;;;;5055539;28;20029;-80
2021/07/24 12:57:45;;;;;;;11.07;8.23;;;33.50;46.10;;;;;;5011723;28;20025;-80
2021/07/24 13:00:16;;;;;;;9.80;7.50;;;33.40;45.40;;;;;;5044726;28;20298;-80
2021/07/24 13:02:42;;;;;;;19.17;7.07;;;33.30;44.90;;;;;;5027795;28;20103;-81
2021/07/24 13:05:09;;;;;;;11.37;7.83;;;33.30;46.40;;;;;;5027592;28;20029;-81
2021/07/24 13:07:39;;;;;;;8.88;7.10;;;33.30;45.70;;;;;;5023948;28;20400;-81
2021/07/24 13:10:06;;;;;;;11.55;7.53;;;33.30;45.50;;;;;;5013895;28;20033;-81
2021/07/24 13:12:32;;;;;;;9.43;7.50;;;33.30;45.70;;;;;;5024851;28;20089;-80
2021/07/24 13:14:58;;;;;;;13.88;7.90;;;33.20;45.90;;;;;;5009655;28;20085;-81
2021/07/24 13:17:25;;;;;;;9.52;7.22;;;33.30;46.50;;;;;;5024729;28;20034;-81
2021/07/24 13:19:52;;;;;;;16.20;7.78;;;33.30;46.50;;;;;;5007851;28;20080;-80
2021/07/24 13:22:18;;;;;;;13.60;7.50;;;33.40;45.80;;;;;;5008680;28;20042;-82
2021/07/24 13:24:44;;;;;;;12.60;7.33;;;33.40;44.80;;;;;;5015517;28;20088;-80
2021/07/24 13:29:54;;;;;;;16.42;7.82;;;33.40;45.50;;;;;;5039640;28;20029;-80
2021/07/24 13:32:20;;;;;;;9.17;6.87;;;33.50;45.10;;;;;;5023931;28;20053;-80
2021/07/24 13:34:46;;;;;;;12.13;7.00;;;33.50;45.60;;;;;;5053935;28;20036;-79
2021/07/24 13:37:22;;;;;;;12.27;7.65;;;33.30;46.30;;;;;;5078948;28;20039;-80
2021/07/24 13:39:50;;;;;;;9.98;7.20;;;33.30;44.80;;;;;;5067809;28;20047;-79
2021/07/24 13:42:16;;;;;;;13.82;7.30;;;33.30;44.70;;;;;;5076310;28;20066;-80
2021/07/24 13:44:41;;;;;;;12.97;6.77;;;33.50;46.50;;;;;;5064346;28;20239;-79
2021/07/24 13:47:07;;;;;;;11.83;8.30;;;33.50;44.60;;;;;;5074742;28;20024;-80
2021/07/24 13:49:37;;;;;;;11.73;7.20;;;33.40;44.40;;;;;;5064829;28;20028;-80
2021/07/24 13:52:04;;;;;;;11.60;7.20;;;33.50;45.50;;;;;;5049739;28;20088;-81
2021/07/24 13:54:33;;;;;;;9.15;6.35;;;33.50;44.30;;;;;;5061271;28;20377;-80
2021/07/24 13:57:00;;;;;;;11.98;7.95;;;33.50;44.30;;;;;;5076609;28;20060;-80
2021/07/24 13:59:26;;;;;;;12.95;7.38;;;33.50;44.70;;;;;;5079337;28;20036;-81
2021/07/24 14:01:52;;;;;;;16.85;7.82;;;33.70;44.10;;;;;;5082985;28;20031;-80
2021/07/24 14:04:18;;;;;;;9.38;7.82;;;33.60;43.00;;;;;;5064282;28;20066;-81
2021/07/24 14:06:44;;;;;;;11.27;6.63;;;33.60;43.60;;;;;;5047482;28;20057;-79
2021/07/24 14:09:09;;;;;;;10.10;7.33;;;33.40;44.00;;;;;;5047442;28;20251;-81
2021/07/24 14:11:35;;;;;;;14.33;7.10;;;33.50;43.50;;;;;;5064378;28;20071;-81
2021/07/24 14:14:01;;;;;;;10.13;7.17;;;33.40;44.20;;;;;;5047443;28;20033;-81
2021/07/24 14:16:28;;;;;;;10.70;7.53;;;33.50;44.00;;;;;;5054086;28;20051;-81
2021/07/24 14:18:54;;;;;;;11.50;7.43;;;33.50;43.40;;;;;;5068844;28;20048;-79
2021/07/24 14:21:22;;;;;;;16.43;8.10;;;33.50;44.50;;;;;;5072308;28;20063;-79
2021/07/24 14:23:50;;;;;;;9.18;7.72;;;33.40;44.00;;;;;;5063862;28;20459;-80
2021/07/24 14:26:16;;;;;;;13.00;7.63;;;33.60;45.80;;;;;;5057555;28;20036;-80
2021/07/24 14:28:42;;;;;;;10.52;7.13;;;33.60;43.20;;;;;;5055308;28;20071;-79
2021/07/24 14:31:08;;;;;;;12.33;7.53;;;33.50;44.30;;;;;;5070347;28;20023;-79
2021/07/24 14:33:35;;;;;;;10.60;6.87;;;33.40;43.90;;;;;;5086652;28;20031;-79
2021/07/24 14:36:05;;;;;;;9.00;7.28;;;33.40;44.00;;;;;;5084239;28;20032;-79
2021/07/24 14:38:33;;;;;;;9.13;7.15;;;33.30;43.40;;;;;;5067177;28;20017;-79
2021/07/24 14:41:01;;;;;;;11.68;7.32;;;33.20;43.50;;;;;;5054111;28;20079;-79
2021/07/24 14:43:27;;;;;;;11.52;7.97;;;33.10;43.70;;;;;;5066943;28;20012;-79
2021/07/24 14:45:54;;;;;;;12.13;8.00;;;33.10;44.00;;;;;;5063208;28;20078;-79
2021/07/24 14:48:20;;;;;;;10.30;7.43;;;33.20;44.00;;;;;;5062953;28;20296;-79
2021/07/24 14:50:46;;;;;;;8.90;6.80;;;33.20;43.80;;;;;;5082490;28;20224;-79
2021/07/24 14:53:11;;;;;;;10.57;7.47;;;33.30;45.10;;;;;;5082107;28;20035;-79
2021/07/24 14:55:38;;;;;;;11.73;7.07;;;33.50;43.20;;;;;;5063462;28;20036;-80
2021/07/24 14:58:04;;;;;;;15.25;7.75;;;33.50;44.00;;;;;;5070111;28;20412;-80
2021/07/24 15:00:31;;;;;;;15.57;7.78;;;33.30;44.30;;;;;;5070084;28;20223;-78
2021/07/24 15:02:57;;;;;;;11.80;7.40;;;33.30;44.50;;;;;;5078995;28;20027;-80
2021/07/24 15:05:24;;;;;;;12.45;7.55;;;33.30;43.60;;;;;;5100536;28;20065;-79
2021/07/24 15:07:51;;;;;;;13.85;7.03;;;33.30;43.60;;;;;;5075129;28;20040;-78
2021/07/24 15:10:18;;;;;;;8.90;7.65;;;33.20;44.00;;;;;;5075478;28;20032;-77
2021/07/24 15:12:44;;;;;;;19.08;6.97;;;33.20;44.20;;;;;;5054123;28;20262;-79
2021/07/24 15:15:10;;;;;;;10.50;8.10;;;33.30;43.70;;;;;;5064882;28;20032;-78
2021/07/24 15:17:36;;;;;;;14.13;7.53;;;33.20;43.80;;;;;;5081346;28;20114;-78
2021/07/24 15:20:02;;;;;;;8.23;7.20;;;33.20;44.30;;;;;;5060468;28;20213;-78
2021/07/24 15:22:28;;;;;;;;;;;33.20;44.30;;;;;;5075693;28;20016;-80
2021/07/24 15:24:54;;;;;;;11.40;9.07;;;33.10;44.50;;;;;;5080633;28;19905;-81
2021/07/24 15:27:19;;;;;;;14.23;8.53;;;33.10;44.20;;;;;;5059738;28;20554;-81
2021/07/24 15:29:45;;;;;;;9.77;7.83;;;33.10;45.10;;;;;;5061348;28;20062;-81
2021/07/24 15:32:11;;;;;;;12.03;7.37;;;33.00;44.60;;;;;;5069406;28;20046;-81
2021/07/24 15:34:37;;;;;;;13.57;7.80;;;33.00;46.10;;;;;;5093230;28;20016;-80
2021/07/24 15:37:03;;;;;;;12.47;7.97;;;32.90;44.50;;;;;;5057979;28;20033;-80
2021/07/24 15:39:28;;;;;;;9.07;6.97;;;32.90;45.50;;;;;;5079352;28;20030;-80
2021/07/24 15:41:54;;;;;;;10.10;7.57;;;32.90;44.50;;;;;;5072587;28;20275;-79
2021/07/24 15:44:20;;;;;;;12.10;7.23;;;32.90;44.60;;;;;;5079195;28;20025;-79
2021/07/24 15:46:45;;;;;;;13.57;7.87;;;32.90;44.80;;;;;;5063660;28;20025;-80
2021/07/24 15:49:11;;;;;;;13.73;7.87;;;32.80;44.20;;;;;;5081154;28;20087;-81
2021/07/24 15:51:37;;;;;;;21.13;7.87;;;32.70;45.00;;;;;;5079493;28;20103;-80
2021/07/24 15:54:03;;;;;;;11.67;7.73;;;32.70;44.40;;;;;;5059033;28;20040;-80
2021/07/24 15:56:30;;;;;;;9.23;7.03;;;32.60;45.00;;;;;;5086343;28;20031;-81
2021/07/24 15:58:57;;;;;;;12.07;7.40;;;32.60;45.20;;;;;;5081421;28;20184;-80
2021/07/24 16:01:23;;;;;;;16.63;7.25;;;32.60;45.20;;;;;;5062915;28;20021;-80
2021/07/24 16:03:49;;;;;;;13.53;7.57;;;32.50;45.40;;;;;;5062624;28;20040;-80
2021/07/24 16:06:14;;;;;;;8.10;7.00;;;32.50;45.50;;;;;;5055734;28;20044;-80